createdAt,value
2023-03-13T00:01:01.299Z,100.00
2023-03-13T00:03:28.244Z,100.00
2023-03-13T00:05:58.761Z,100.00
2023-03-13T00:08:28.597Z,100.00
2023-03-13T00:10:55.450Z,100.00
2023-03-13T00:13:22.989Z,100.00
2023-03-13T00:15:49.778Z,100.00
2023-03-13T00:18:16.715Z,100.00
2023-03-13T00:20:43.382Z,100.00
2023-03-13T00:23:10.024Z,100.00
2023-03-13T00:25:36.704Z,100.00
2023-03-13T00:28:03.331Z,100.00
2023-03-13T00:30:30.254Z,100.00
2023-03-13T00:32:56.999Z,100.00
2023-03-13T00:35:23.742Z,100.00
2023-03-13T00:37:50.433Z,100.00
2023-03-13T00:40:17.155Z,100.00
2023-03-13T00:42:43.929Z,100.00
2023-03-13T00:45:10.799Z,100.00
2023-03-13T00:47:37.524Z,100.00
2023-03-13T00:50:04.688Z,100.00
2023-03-13T00:52:31.392Z,100.00
2023-03-13T00:54:58.161Z,100.00
2023-03-13T00:57:24.852Z,100.00
2023-03-13T00:59:51.547Z,100.00
2023-03-13T01:02:18.304Z,100.00
2023-03-13T01:04:45.026Z,100.00
2023-03-13T01:07:11.680Z,100.00
2023-03-13T01:09:38.357Z,100.00
2023-03-13T01:12:05.328Z,100.00
2023-03-13T01:14:31.973Z,100.00
2023-03-13T01:16:58.768Z,100.00
2023-03-13T01:19:25.412Z,100.00
2023-03-13T01:21:52.336Z,100.00
2023-03-13T01:24:20.273Z,100.00
2023-03-13T01:26:47.416Z,100.00
2023-03-13T01:29:15.759Z,100.00
2023-03-13T01:31:42.645Z,100.00
2023-03-13T01:34:10.895Z,100.00
2023-03-13T01:36:38.149Z,100.00
2023-03-13T01:39:05.884Z,100.00
2023-03-13T01:41:32.621Z,100.00
2023-03-13T01:43:59.854Z,100.00
2023-03-13T01:46:35.447Z,100.00
2023-03-13T01:49:27.036Z,100.00
2023-03-13T01:52:01.255Z,100.00
2023-03-13T01:54:34.570Z,100.00
2023-03-13T01:57:04.187Z,100.00
2023-03-13T01:59:44.523Z,100.00
2023-03-13T02:02:11.996Z,100.00
2023-03-13T02:04:44.261Z,100.00
2023-03-13T02:07:17.333Z,100.00
2023-03-13T02:09:48.368Z,100.00
2023-03-13T02:12:18.593Z,100.00
2023-03-13T02:14:47.040Z,100.00
2023-03-13T02:17:14.361Z,100.00
2023-03-13T02:19:47.303Z,100.00
2023-03-13T02:22:28.118Z,100.00
2023-03-13T02:25:25.293Z,100.00
2023-03-13T02:28:09.443Z,100.00
2023-03-13T02:30:39.784Z,100.00
2023-03-13T02:33:06.496Z,100.00
2023-03-13T02:35:36.670Z,100.00
2023-03-13T02:38:10.644Z,100.00
2023-03-13T02:40:41.929Z,100.00
2023-03-13T02:43:32.232Z,100.00
2023-03-13T02:46:13.937Z,100.00
2023-03-13T02:48:47.052Z,100.00
2023-03-13T02:51:26.225Z,100.00
2023-03-13T02:53:58.043Z,100.00
2023-03-13T02:56:27.246Z,100.00
2023-03-13T02:58:55.171Z,100.00
2023-03-13T03:01:24.347Z,100.00
2023-03-13T03:03:51.851Z,100.00
2023-03-13T03:06:18.716Z,100.00
2023-03-13T03:08:46.348Z,100.00
2023-03-13T03:11:13.723Z,100.00
2023-03-13T03:13:42.176Z,100.00
2023-03-13T03:16:10.943Z,100.00
2023-03-13T03:18:38.544Z,100.00
2023-03-13T03:21:06.592Z,100.00
2023-03-13T03:23:37.480Z,100.00
2023-03-13T03:26:05.949Z,100.00
2023-03-13T03:28:33.498Z,100.00
2023-03-13T03:31:11.891Z,100.00
2023-03-13T03:33:40.471Z,100.00
2023-03-13T03:36:14.038Z,100.00
2023-03-13T03:38:41.841Z,100.00
2023-03-13T03:41:11.924Z,100.00
2023-03-13T03:43:38.861Z,100.00
2023-03-13T03:46:07.861Z,100.00
2023-03-13T03:48:35.152Z,100.00
2023-03-13T03:51:04.823Z,100.00
2023-03-13T03:53:34.084Z,100.00
2023-03-13T03:56:01.469Z,100.00
2023-03-13T03:58:28.226Z,100.00
2023-03-13T04:01:01.696Z,100.00
2023-03-13T04:03:28.524Z,100.00
2023-03-13T04:05:55.844Z,100.00
2023-03-13T04:08:24.701Z,100.00
2023-03-13T04:10:51.783Z,100.00
2023-03-13T04:13:22.276Z,100.00
2023-03-13T04:15:49.650Z,100.00
2023-03-13T04:18:17.515Z,100.00
2023-03-13T04:20:44.818Z,100.00
2023-03-13T04:23:12.148Z,100.00
2023-03-13T04:25:38.791Z,100.00
2023-03-13T04:28:09.014Z,100.00
2023-03-13T04:30:41.157Z,100.00
2023-03-13T04:33:10.538Z,100.00
2023-03-13T04:35:52.956Z,100.00
2023-03-13T04:38:43.386Z,100.00
2023-03-13T04:41:28.591Z,100.00
2023-03-13T04:44:15.281Z,100.00
2023-03-13T04:46:56.480Z,100.00
2023-03-13T04:49:48.925Z,100.00
2023-03-13T04:52:51.073Z,100.00
2023-03-13T04:55:36.216Z,100.00
2023-03-13T04:58:22.222Z,100.00
2023-03-13T05:01:05.052Z,100.00
2023-03-13T05:03:50.760Z,100.00
2023-03-13T05:06:36.581Z,100.00
2023-03-13T05:09:14.812Z,100.00
2023-03-13T05:12:04.804Z,100.00
2023-03-13T05:14:52.609Z,100.00
2023-03-13T05:17:54.863Z,100.00
2023-03-13T05:20:40.439Z,100.00
2023-03-13T05:23:07.174Z,100.00
2023-03-13T05:25:33.830Z,100.00
2023-03-13T05:28:14.105Z,100.00
2023-03-13T05:30:50.007Z,100.00
2023-03-13T05:33:29.749Z,100.00
2023-03-13T05:36:15.008Z,100.00
2023-03-13T05:39:17.048Z,100.00
2023-03-13T05:42:00.964Z,100.00
2023-03-13T05:44:42.377Z,100.00
2023-03-13T05:47:27.494Z,100.00
2023-03-13T05:50:07.834Z,100.00
2023-03-13T05:52:55.727Z,100.00
2023-03-13T05:55:51.602Z,100.00
2023-03-13T05:58:40.854Z,100.00
2023-03-13T06:01:28.797Z,100.00
2023-03-13T06:04:03.716Z,100.00
2023-03-13T06:06:33.642Z,100.00
2023-03-13T06:09:00.798Z,100.00
2023-03-13T06:11:30.614Z,100.00
2023-03-13T06:13:57.409Z,100.00
2023-03-13T06:16:33.826Z,100.00
2023-03-13T06:19:19.228Z,100.00
2023-03-13T06:21:46.188Z,100.00
2023-03-13T06:24:12.942Z,100.00
2023-03-13T06:26:39.587Z,100.00
2023-03-13T06:29:06.254Z,100.00
2023-03-13T06:31:32.985Z,100.00
2023-03-13T06:33:59.774Z,100.00
2023-03-13T06:36:26.566Z,100.00
2023-03-13T06:38:53.222Z,100.00
2023-03-13T06:41:19.891Z,100.00
2023-03-13T06:43:46.593Z,100.00
2023-03-13T06:46:18.400Z,100.00
2023-03-13T06:48:46.447Z,100.00
2023-03-13T06:51:14.852Z,100.00
2023-03-13T06:53:42.180Z,100.00
2023-03-13T06:56:09.307Z,100.00
2023-03-13T06:58:36.511Z,100.00
2023-03-13T07:01:11.907Z,100.00
2023-03-13T07:03:39.167Z,100.00
2023-03-13T07:06:06.209Z,100.00
2023-03-13T07:08:33.499Z,100.00
2023-03-13T07:11:02.707Z,100.00
2023-03-13T07:13:29.635Z,100.00
2023-03-13T07:15:57.131Z,100.00
2023-03-13T07:18:23.955Z,100.00
2023-03-13T07:20:58.947Z,100.00
2023-03-13T07:23:28.114Z,100.00
2023-03-13T07:26:11.140Z,100.00
2023-03-13T07:28:38.111Z,100.00
2023-03-13T07:31:11.062Z,100.00
2023-03-13T07:33:38.183Z,100.00
2023-03-13T07:36:05.265Z,100.00
2023-03-13T07:38:31.997Z,100.00
2023-03-13T07:40:59.037Z,100.00
2023-03-13T07:43:26.491Z,100.00
2023-03-13T07:45:58.905Z,100.00
2023-03-13T07:48:29.461Z,100.00
2023-03-13T07:50:56.885Z,100.00
2023-03-13T07:53:23.843Z,100.00
2023-03-13T07:56:05.485Z,100.00
2023-03-13T07:58:35.130Z,100.00
2023-03-13T08:01:10.036Z,100.00
2023-03-13T08:03:38.119Z,100.00
2023-03-13T08:06:08.466Z,100.00
2023-03-13T08:08:35.865Z,100.00
2023-03-13T08:11:09.491Z,100.00
2023-03-13T08:13:37.376Z,100.00
2023-03-13T08:16:17.772Z,100.00
2023-03-13T08:18:47.245Z,100.00
2023-03-13T08:21:16.544Z,100.00
2023-03-13T08:23:43.765Z,100.00
2023-03-13T08:26:16.574Z,100.00
2023-03-13T08:28:45.423Z,100.00
2023-03-13T08:31:20.051Z,100.00
2023-03-13T08:33:47.813Z,100.00
2023-03-13T08:36:14.541Z,100.00
2023-03-13T08:38:46.390Z,100.00
2023-03-13T08:41:15.025Z,100.00
2023-03-13T08:43:42.110Z,100.00
2023-03-13T08:46:09.037Z,100.00
2023-03-13T08:48:35.800Z,100.00
2023-03-13T08:51:08.132Z,100.00
2023-03-13T08:53:35.989Z,100.00
2023-03-13T08:56:04.456Z,100.00
2023-03-13T08:58:31.780Z,100.00
2023-03-13T09:01:07.088Z,100.00
2023-03-13T09:03:34.131Z,100.00
2023-03-13T09:06:01.787Z,100.00
2023-03-13T09:08:30.312Z,100.00
2023-03-13T09:11:01.235Z,100.00
2023-03-13T09:13:29.804Z,100.00
2023-03-13T09:16:01.124Z,100.00
2023-03-13T09:18:28.910Z,100.00
2023-03-13T09:20:55.799Z,100.00
2023-03-13T09:23:24.004Z,100.00
2023-03-13T09:25:55.711Z,100.00
2023-03-13T09:28:23.903Z,100.00
2023-03-13T09:30:50.669Z,100.00
2023-03-13T09:33:18.834Z,100.00
2023-03-13T09:35:51.181Z,100.00
2023-03-13T09:38:19.502Z,100.00
2023-03-13T09:41:04.848Z,100.00
2023-03-13T09:43:47.689Z,100.00
2023-03-13T09:46:26.611Z,100.00
2023-03-13T09:48:59.316Z,100.00
2023-03-13T09:51:29.857Z,100.00
2023-03-13T09:54:04.514Z,100.00
2023-03-13T09:56:40.877Z,100.00
2023-03-13T09:59:19.999Z,100.00
2023-03-13T10:01:49.459Z,100.00
2023-03-13T10:04:19.240Z,100.00
2023-03-13T10:06:47.756Z,100.00
2023-03-13T10:09:22.785Z,100.00
2023-03-13T10:12:07.437Z,100.00
2023-03-13T10:14:44.020Z,100.00
2023-03-13T10:17:15.952Z,100.00
2023-03-13T10:19:47.477Z,100.00
2023-03-13T10:22:21.903Z,100.00
2023-03-13T10:25:29.127Z,100.00
2023-03-13T10:27:56.552Z,100.00
2023-03-13T10:30:32.010Z,99.96
2023-03-13T10:33:24.846Z,100.00
2023-03-13T10:36:19.630Z,97.95
2023-03-13T10:38:51.872Z,94.86
2023-03-13T10:41:38.787Z,94.61
2023-03-13T10:44:12.885Z,92.15
2023-03-13T10:46:43.032Z,91.59
2023-03-13T10:49:24.338Z,89.80
2023-03-13T10:52:02.572Z,88.97
2023-03-13T10:54:31.896Z,88.23
2023-03-13T10:57:20.585Z,89.10
2023-03-13T10:59:52.091Z,90.08
2023-03-13T11:02:35.939Z,91.17
2023-03-13T11:05:23.737Z,89.28
2023-03-13T11:07:51.167Z,86.24
2023-03-13T11:10:22.204Z,81.53
2023-03-13T11:12:54.156Z,78.25
2023-03-13T11:15:42.113Z,76.79
2023-03-13T11:18:22.466Z,74.41
2023-03-13T11:20:49.781Z,75.23
2023-03-13T11:23:29.124Z,75.74
2023-03-13T11:26:14.767Z,75.82
2023-03-13T11:29:03.205Z,75.36
2023-03-13T11:31:35.034Z,74.98
2023-03-13T11:34:27.728Z,76.67
2023-03-13T11:37:04.877Z,73.45
2023-03-13T11:39:40.472Z,76.69
2023-03-13T11:42:46.591Z,77.71
2023-03-13T11:45:22.480Z,77.63
2023-03-13T11:48:09.883Z,77.33
2023-03-13T11:50:36.698Z,75.12
2023-03-13T11:53:36.522Z,74.14
2023-03-13T11:56:43.553Z,72.66
2023-03-13T11:59:35.875Z,70.74
2023-03-13T12:02:11.871Z,67.62
2023-03-13T12:04:47.540Z,69.47
2023-03-13T12:07:23.366Z,68.72
2023-03-13T12:09:55.515Z,67.54
2023-03-13T12:12:27.835Z,66.30
2023-03-13T12:15:26.841Z,64.25
2023-03-13T12:18:08.289Z,62.54
2023-03-13T12:20:53.430Z,58.01
2023-03-13T12:23:28.997Z,57.22
2023-03-13T12:26:05.094Z,58.55
2023-03-13T12:28:43.100Z,57.65
2023-03-13T12:31:25.458Z,56.88
2023-03-13T12:34:34.665Z,57.08
2023-03-13T12:37:21.383Z,56.89
2023-03-13T12:40:01.268Z,57.29
2023-03-13T12:42:46.440Z,56.13
2023-03-13T12:45:19.715Z,57.83
2023-03-13T12:47:52.398Z,55.73
2023-03-13T12:50:34.316Z,56.45
2023-03-13T12:53:21.113Z,55.48
2023-03-13T12:56:05.370Z,54.78
2023-03-13T12:58:48.920Z,56.07
2023-03-13T13:01:24.689Z,53.81
2023-03-13T13:04:04.310Z,54.99
2023-03-13T13:07:00.566Z,52.64
2023-03-13T13:09:33.578Z,52.94
2023-03-13T13:12:21.567Z,52.58
2023-03-13T13:14:48.201Z,53.14
2023-03-13T13:17:34.490Z,53.38
2023-03-13T13:20:30.641Z,53.44
2023-03-13T13:23:16.165Z,53.49
2023-03-13T13:25:42.887Z,53.18
2023-03-13T13:28:26.547Z,53.68
2023-03-13T13:30:56.264Z,53.80
2023-03-13T13:33:30.588Z,53.07
2023-03-13T13:36:09.597Z,53.90
2023-03-13T13:38:40.389Z,54.18
2023-03-13T13:41:10.275Z,54.95
2023-03-13T13:43:45.329Z,55.61
2023-03-13T13:46:30.270Z,55.68
2023-03-13T13:49:18.724Z,57.86
2023-03-13T13:52:06.777Z,58.86
2023-03-13T13:54:55.828Z,59.55
2023-03-13T13:57:25.981Z,59.35
2023-03-13T13:59:59.555Z,59.35
2023-03-13T14:02:37.231Z,60.84
2023-03-13T14:05:07.976Z,62.41
2023-03-13T14:07:46.463Z,62.10
2023-03-13T14:10:39.801Z,62.08
2023-03-13T14:13:20.743Z,62.00
2023-03-13T14:15:55.245Z,62.36
2023-03-13T14:18:23.354Z,63.19
2023-03-13T14:20:49.971Z,62.74
2023-03-13T14:23:45.229Z,63.98
2023-03-13T14:26:21.991Z,63.42
2023-03-13T14:28:55.298Z,63.06
2023-03-13T14:31:25.432Z,61.24
2023-03-13T14:33:52.487Z,59.67
2023-03-13T14:36:19.191Z,60.64
2023-03-13T14:39:00.126Z,60.39
2023-03-13T14:41:29.410Z,61.10
2023-03-13T14:44:03.528Z,61.69
2023-03-13T14:46:33.492Z,62.05
2023-03-13T14:49:16.831Z,62.06
2023-03-13T14:51:44.049Z,61.23
2023-03-13T14:54:32.355Z,60.60
2023-03-13T14:57:06.977Z,60.41
2023-03-13T14:59:33.655Z,60.56
2023-03-13T15:02:15.291Z,61.22
2023-03-13T15:04:48.968Z,61.26
2023-03-13T15:07:15.760Z,61.66
2023-03-13T15:09:43.539Z,61.09
2023-03-13T15:12:16.543Z,61.17
2023-03-13T15:14:46.445Z,62.20
2023-03-13T15:17:21.108Z,62.26
2023-03-13T15:19:49.661Z,63.35
2023-03-13T15:22:17.985Z,63.64
2023-03-13T15:24:59.630Z,64.16
2023-03-13T15:27:31.512Z,65.22
2023-03-13T15:29:58.181Z,65.16
2023-03-13T15:32:32.813Z,65.40
2023-03-13T15:35:01.930Z,65.23
2023-03-13T15:37:30.206Z,64.59
2023-03-13T15:39:58.192Z,64.29
2023-03-13T15:42:25.009Z,63.74
2023-03-13T15:44:51.652Z,64.24
2023-03-13T15:47:20.624Z,64.63
2023-03-13T15:49:47.846Z,64.54
2023-03-13T15:52:18.924Z,63.95
2023-03-13T15:54:46.769Z,64.37
2023-03-13T15:57:16.067Z,64.90
2023-03-13T15:59:44.165Z,65.49
2023-03-13T16:02:16.375Z,65.22
2023-03-13T16:04:44.060Z,65.56
2023-03-13T16:07:12.512Z,65.64
2023-03-13T16:09:40.380Z,66.42
2023-03-13T16:12:07.615Z,66.61
2023-03-13T16:14:34.876Z,66.90
2023-03-13T16:17:02.914Z,66.59
2023-03-13T16:19:30.798Z,66.95
2023-03-13T16:21:57.470Z,66.76
2023-03-13T16:24:24.187Z,67.29
2023-03-13T16:26:50.926Z,67.17
2023-03-13T16:29:17.572Z,66.96
2023-03-13T16:31:44.230Z,67.14
2023-03-13T16:34:10.937Z,67.68
2023-03-13T16:36:37.863Z,68.17
2023-03-13T16:39:09.105Z,68.25
2023-03-13T16:41:35.862Z,68.31
2023-03-13T16:44:02.965Z,68.67
2023-03-13T16:46:37.689Z,69.06
2023-03-13T16:49:05.078Z,69.25
2023-03-13T16:51:32.365Z,69.63
2023-03-13T16:54:00.541Z,69.84
2023-03-13T16:56:33.733Z,70.00
2023-03-13T16:59:03.096Z,70.09
2023-03-13T17:01:30.451Z,69.68
2023-03-13T17:03:58.776Z,69.65
2023-03-13T17:06:28.675Z,69.74
2023-03-13T17:08:56.401Z,69.80
2023-03-13T17:11:23.638Z,69.84
2023-03-13T17:13:52.298Z,70.20
2023-03-13T17:16:25.039Z,70.41
2023-03-13T17:18:53.790Z,70.70
2023-03-13T17:21:23.816Z,70.84
2023-03-13T17:23:51.282Z,71.25
2023-03-13T17:26:21.628Z,70.97
2023-03-13T17:28:49.916Z,71.22
2023-03-13T17:31:17.532Z,71.54
2023-03-13T17:33:44.976Z,71.83
2023-03-13T17:36:16.051Z,72.04
2023-03-13T17:38:43.429Z,72.39
2023-03-13T17:41:13.153Z,72.33
2023-03-13T17:43:40.532Z,72.41
2023-03-13T17:46:23.571Z,73.00
2023-03-13T17:48:52.911Z,73.11
2023-03-13T17:51:25.393Z,73.46
2023-03-13T17:53:53.371Z,73.73
2023-03-13T17:56:29.921Z,73.81
2023-03-13T17:58:59.016Z,74.01
2023-03-13T18:01:28.958Z,73.47
2023-03-13T18:03:55.899Z,73.78
2023-03-13T18:06:33.552Z,73.81
2023-03-13T18:09:02.972Z,73.28
2023-03-13T18:11:29.673Z,73.21
2023-03-13T18:13:56.468Z,73.35
2023-03-13T18:16:27.314Z,73.53
2023-03-13T18:18:54.509Z,73.78
2023-03-13T18:21:22.987Z,74.29
2023-03-13T18:23:50.049Z,74.44
2023-03-13T18:26:20.430Z,74.86
2023-03-13T18:28:47.223Z,75.33
2023-03-13T18:31:13.909Z,75.41
2023-03-13T18:33:41.788Z,75.04
2023-03-13T18:36:20.324Z,74.84
2023-03-13T18:38:48.922Z,74.62
2023-03-13T18:41:16.353Z,74.65
2023-03-13T18:43:44.046Z,74.71
2023-03-13T18:46:23.511Z,74.49
2023-03-13T18:48:51.251Z,74.42
2023-03-13T18:51:19.853Z,74.34
2023-03-13T18:53:47.195Z,74.42
2023-03-13T18:56:34.492Z,74.51
2023-03-13T18:59:01.232Z,74.60
2023-03-13T19:01:30.767Z,74.60
2023-03-13T19:04:00.072Z,74.48
2023-03-13T19:06:32.853Z,74.71
2023-03-13T19:09:00.496Z,74.54
2023-03-13T19:11:29.635Z,74.27
2023-03-13T19:13:57.214Z,73.48
2023-03-13T19:16:49.870Z,73.41
2023-03-13T19:19:21.611Z,73.40
2023-03-13T19:21:49.455Z,73.40
2023-03-13T19:24:16.457Z,72.36
2023-03-13T19:26:46.681Z,71.53
2023-03-13T19:29:21.104Z,70.53
2023-03-13T19:31:48.131Z,69.82
2023-03-13T19:34:17.307Z,70.08
2023-03-13T19:36:47.172Z,71.04
2023-03-13T19:39:16.545Z,74.49
2023-03-13T19:41:43.606Z,79.23
2023-03-13T19:44:10.327Z,79.80
2023-03-13T19:46:43.188Z,77.83
2023-03-13T19:49:12.682Z,81.48
2023-03-13T19:51:39.461Z,82.35
2023-03-13T19:54:06.453Z,85.13
2023-03-13T19:56:33.681Z,87.88
2023-03-13T19:59:21.224Z,89.79
2023-03-13T20:01:48.182Z,90.04
2023-03-13T20:04:15.474Z,90.47
2023-03-13T20:06:43.587Z,91.54
2023-03-13T20:09:14.768Z,91.63
2023-03-13T20:11:42.343Z,91.99
2023-03-13T20:14:09.885Z,92.01
2023-03-13T20:16:37.784Z,92.09
2023-03-13T20:19:04.650Z,92.32
2023-03-13T20:21:33.934Z,92.74
2023-03-13T20:24:01.352Z,93.82
2023-03-13T20:26:29.371Z,95.32
2023-03-13T20:28:56.882Z,97.21
2023-03-13T20:31:29.071Z,98.50
2023-03-13T20:33:57.247Z,99.49
2023-03-13T20:36:24.660Z,100.00
2023-03-13T20:38:52.214Z,100.00
2023-03-13T20:41:25.021Z,100.00
2023-03-13T20:43:52.647Z,100.00
2023-03-13T20:46:19.952Z,100.00
2023-03-13T20:48:46.830Z,100.00
2023-03-13T20:51:13.585Z,100.00
2023-03-13T20:53:42.085Z,100.00
2023-03-13T20:56:10.724Z,100.00
2023-03-13T20:58:37.597Z,100.00
2023-03-13T21:01:05.513Z,100.00
2023-03-13T21:03:35.521Z,100.00
2023-03-13T21:06:10.998Z,100.00
2023-03-13T21:08:38.917Z,100.00
2023-03-13T21:11:20.684Z,100.00
2023-03-13T21:13:47.832Z,100.00
2023-03-13T21:16:15.676Z,100.00
2023-03-13T21:18:42.817Z,100.00
2023-03-13T21:21:13.326Z,100.00
2023-03-13T21:23:40.088Z,100.00
2023-03-13T21:26:07.107Z,100.00
2023-03-13T21:28:33.797Z,100.00
2023-03-13T21:31:08.330Z,100.00
2023-03-13T21:33:35.177Z,100.00
2023-03-13T21:36:02.039Z,100.00
2023-03-13T21:38:28.832Z,100.00
2023-03-13T21:40:55.502Z,100.00
2023-03-13T21:43:23.845Z,100.00
2023-03-13T21:45:50.556Z,100.00
2023-03-13T21:48:17.231Z,100.00
2023-03-13T21:50:43.873Z,100.00
2023-03-13T21:53:10.767Z,100.00
2023-03-13T21:55:39.946Z,100.00
2023-03-13T21:58:06.929Z,100.00
2023-03-13T22:00:34.036Z,100.00
2023-03-13T22:03:01.021Z,100.00
2023-03-13T22:05:27.773Z,100.00
2023-03-13T22:07:55.948Z,100.00
2023-03-13T22:10:22.728Z,100.00
2023-03-13T22:12:49.453Z,100.00
2023-03-13T22:15:16.106Z,100.00
2023-03-13T22:17:42.884Z,100.00
2023-03-13T22:20:10.409Z,100.00
2023-03-13T22:22:37.143Z,100.00
2023-03-13T22:25:04.541Z,100.00
2023-03-13T22:27:31.210Z,100.00
2023-03-13T22:29:57.906Z,100.00
2023-03-13T22:32:25.893Z,100.00
2023-03-13T22:34:52.680Z,100.00
2023-03-13T22:37:21.826Z,100.00
2023-03-13T22:39:50.163Z,100.00
2023-03-13T22:42:16.920Z,100.00
2023-03-13T22:44:43.609Z,100.00
2023-03-13T22:47:10.290Z,100.00
2023-03-13T22:49:36.889Z,100.00
2023-03-13T22:52:04.030Z,100.00
2023-03-13T22:54:30.924Z,100.00
2023-03-13T22:56:57.812Z,100.00
2023-03-13T22:59:24.666Z,100.00
2023-03-13T23:01:51.344Z,100.00
2023-03-13T23:04:18.078Z,100.00
2023-03-13T23:06:44.909Z,100.00
2023-03-13T23:09:11.724Z,100.00
2023-03-13T23:11:38.488Z,100.00
2023-03-13T23:14:05.188Z,100.00
2023-03-13T23:16:32.084Z,100.00
2023-03-13T23:18:58.775Z,100.00
2023-03-13T23:21:25.460Z,100.00
2023-03-13T23:23:54.119Z,100.00
2023-03-13T23:26:20.906Z,100.00
2023-03-13T23:28:47.753Z,100.00
2023-03-13T23:31:17.114Z,100.00
2023-03-13T23:33:44.637Z,100.00
2023-03-13T23:36:14.881Z,100.00
2023-03-13T23:38:41.738Z,100.00
2023-03-13T23:41:10.808Z,100.00
2023-03-13T23:43:37.853Z,100.00
2023-03-13T23:46:05.226Z,100.00
2023-03-13T23:48:32.268Z,100.00
2023-03-13T23:50:59.062Z,100.00
2023-03-13T23:53:25.724Z,100.00
2023-03-13T23:55:58.815Z,100.00
2023-03-13T23:58:25.724Z,100.00
